createdAt,value
2018-12-10T00:01:09.367Z,6.41
2018-12-10T00:02:19.320Z,6.5
2018-12-10T00:03:29.273Z,6.38
2018-12-10T00:04:39.211Z,6.47
2018-12-10T00:05:49.142Z,6.39
2018-12-10T00:06:58.568Z,6.41
2018-12-10T00:08:08.526Z,6.39
2018-12-10T00:09:18.237Z,6.53
2018-12-10T00:10:28.186Z,6.49
2018-12-10T00:11:38.115Z,6.39
2018-12-10T00:12:47.545Z,6.47
2018-12-10T00:13:57.480Z,6.36
2018-12-10T00:15:07.183Z,6.39
2018-12-10T00:16:17.128Z,6.36
2018-12-10T00:17:27.076Z,6.52
2018-12-10T00:18:36.794Z,6.44
2018-12-10T00:19:46.481Z,6.47
2018-12-10T00:20:56.446Z,6.49
2018-12-10T00:22:06.384Z,6.47
2018-12-10T00:23:16.321Z,6.53
2018-12-10T00:24:26.265Z,6.52
2018-12-10T00:25:36.223Z,6.54
2018-12-10T00:26:46.020Z,6.52
2018-12-10T00:27:55.954Z,6.47
2018-12-10T00:29:05.645Z,6.46
2018-12-10T00:30:15.585Z,6.56
2018-12-10T00:31:25.289Z,6.41
2018-12-10T00:32:34.982Z,6.44
2018-12-10T00:33:44.910Z,6.5
2018-12-10T00:34:54.350Z,6.53
2018-12-10T00:36:03.809Z,6.44
2018-12-10T00:37:13.763Z,6.53
2018-12-10T00:38:23.715Z,6.44
2018-12-10T00:39:33.400Z,6.38
2018-12-10T00:40:43.351Z,6.53
2018-12-10T00:41:53.286Z,6.46
2018-12-10T00:43:03.117Z,6.53
2018-12-10T00:44:12.808Z,6.46
2018-12-10T00:45:22.748Z,6.49
2018-12-10T00:46:32.682Z,6.41
2018-12-10T00:47:42.620Z,6.43
2018-12-10T00:48:52.593Z,6.34
2018-12-10T00:50:02.539Z,6.36
2018-12-10T00:51:12.231Z,6.46
2018-12-10T00:52:22.173Z,6.43
2018-12-10T00:53:32.106Z,6.47
2018-12-10T00:54:42.049Z,6.41
2018-12-10T00:55:51.811Z,6.36
2018-12-10T00:57:01.511Z,6.43
2018-12-10T00:58:11.192Z,6.36
2018-12-10T00:59:21.276Z,6.41
2018-12-10T01:00:31.220Z,6.34
2018-12-10T01:01:41.273Z,6.38
2018-12-10T01:02:51.065Z,6.49
2018-12-10T01:04:00.757Z,6.53
2018-12-10T01:05:10.444Z,6.5
2018-12-10T01:06:20.399Z,6.36
2018-12-10T01:07:30.335Z,6.46
2018-12-10T01:08:40.033Z,6.46
2018-12-10T01:09:49.746Z,6.36
2018-12-10T01:10:59.687Z,6.38
2018-12-10T01:12:09.384Z,6.39
2018-12-10T01:13:19.066Z,6.41
2018-12-10T01:14:28.753Z,6.36
2018-12-10T01:15:38.703Z,6.34
2018-12-10T01:16:48.395Z,6.34
2018-12-10T01:17:58.349Z,6.29
2018-12-10T01:19:08.290Z,6.31
2018-12-10T01:20:17.984Z,6.32
2018-12-10T01:21:27.912Z,6.25
2018-12-10T01:22:37.110Z,6.32
2018-12-10T01:23:47.063Z,6.29
2018-12-10T01:24:56.997Z,6.31
2018-12-10T01:26:06.442Z,6.28
2018-12-10T01:27:16.385Z,6.22
2018-12-10T01:28:26.318Z,6.17
2018-12-10T01:29:36.026Z,6.07
2018-12-10T01:30:45.970Z,6.15
2018-12-10T01:31:55.926Z,6.12
2018-12-10T01:33:05.624Z,6.15
2018-12-10T01:34:15.561Z,6.12
2018-12-10T01:35:25.256Z,6.12
2018-12-10T01:36:35.198Z,6.09
2018-12-10T01:37:44.627Z,6.09
2018-12-10T01:38:54.064Z,6.06
2018-12-10T01:40:03.999Z,6.09
2018-12-10T01:41:13.685Z,6.07
2018-12-10T01:42:23.638Z,6.01
2018-12-10T01:43:33.588Z,6.01
2018-12-10T01:44:43.638Z,6.01
2018-12-10T01:45:53.330Z,5.97
2018-12-10T01:47:03.267Z,5.97
2018-12-10T01:48:12.962Z,5.95
2018-12-10T01:49:22.650Z,6.12
2018-12-10T01:50:32.101Z,5.95
2018-12-10T01:51:41.808Z,6.01
2018-12-10T01:52:51.747Z,5.92
2018-12-10T01:54:01.439Z,5.97
2018-12-10T01:55:11.373Z,5.98
2018-12-10T01:56:21.302Z,5.97
2018-12-10T01:57:31.260Z,5.95
2018-12-10T01:58:40.942Z,5.95
2018-12-10T01:59:50.881Z,6.02
2018-12-10T02:01:00.620Z,5.95
2018-12-10T02:02:10.551Z,5.98
2018-12-10T02:03:20.250Z,5.8
2018-12-10T02:04:30.199Z,5.91
2018-12-10T02:05:39.902Z,5.91
2018-12-10T02:06:49.583Z,5.9
2018-12-10T02:07:59.270Z,5.91
2018-12-10T02:09:09.315Z,5.9
2018-12-10T02:10:18.750Z,5.88
2018-12-10T02:11:28.700Z,5.88
2018-12-10T02:12:38.639Z,5.88
2018-12-10T02:13:48.323Z,5.87
2018-12-10T02:14:58.263Z,5.76
2018-12-10T02:16:07.949Z,5.8
2018-12-10T02:17:17.887Z,5.9
2018-12-10T02:18:27.841Z,5.74
2018-12-10T02:19:37.787Z,5.76
2018-12-10T02:20:49.059Z,5.76
2018-12-10T02:21:58.747Z,5.7
2018-12-10T02:23:08.757Z,5.76
2018-12-10T02:24:18.684Z,5.83
2018-12-10T02:25:28.615Z,5.76
2018-12-10T02:26:38.556Z,5.8
2018-12-10T02:27:48.225Z,5.72
2018-12-10T02:28:58.155Z,5.69
2018-12-10T02:30:07.860Z,5.74
2018-12-10T02:31:17.799Z,5.74
2018-12-10T02:32:27.520Z,5.81
2018-12-10T02:33:37.462Z,5.69
2018-12-10T02:34:47.148Z,5.67
2018-12-10T02:35:56.887Z,5.77
2018-12-10T02:37:06.577Z,5.74
2018-12-10T02:38:16.248Z,5.69
2018-12-10T02:39:26.192Z,5.65
2018-12-10T02:40:36.125Z,5.69
2018-12-10T02:41:46.099Z,5.67
2018-12-10T02:42:55.791Z,5.65
2018-12-10T02:44:05.228Z,5.7
2018-12-10T02:45:14.936Z,5.67
2018-12-10T02:46:24.376Z,5.67
2018-12-10T02:47:33.846Z,5.69
2018-12-10T02:48:43.556Z,5.65
2018-12-10T02:49:53.492Z,5.7
2018-12-10T02:51:03.188Z,5.69
2018-12-10T02:52:12.899Z,5.65
2018-12-10T02:53:22.586Z,5.72
2018-12-10T02:54:32.278Z,5.7
2018-12-10T02:55:41.971Z,5.61
2018-12-10T02:56:51.927Z,5.61
2018-12-10T02:58:01.883Z,5.64
2018-12-10T02:59:11.575Z,5.7
2018-12-10T03:00:21.569Z,5.59
2018-12-10T03:01:31.530Z,5.65
2018-12-10T03:02:41.466Z,5.67
2018-12-10T03:03:51.315Z,5.61
2018-12-10T03:05:01.002Z,5.7
2018-12-10T03:06:10.699Z,5.62
2018-12-10T03:07:20.658Z,5.65
2018-12-10T03:08:30.479Z,5.69
2018-12-10T03:09:40.439Z,5.65
2018-12-10T03:10:50.377Z,5.7
2018-12-10T03:12:00.317Z,5.74
2018-12-10T03:13:10.288Z,5.69
2018-12-10T03:14:20.044Z,5.7
2018-12-10T03:15:29.986Z,5.64
2018-12-10T03:16:39.926Z,5.7
2018-12-10T03:17:49.876Z,5.64
2018-12-10T03:18:59.064Z,5.76
2018-12-10T03:20:09.002Z,5.65
2018-12-10T03:21:18.700Z,5.7
2018-12-10T03:22:28.403Z,5.65
2018-12-10T03:23:38.099Z,5.69
2018-12-10T03:24:47.538Z,5.76
2018-12-10T03:25:57.242Z,5.69
2018-12-10T03:27:07.214Z,5.7
2018-12-10T03:28:17.170Z,5.73
2018-12-10T03:29:27.133Z,5.76
2018-12-10T03:30:37.091Z,5.76
2018-12-10T03:31:47.126Z,5.67
2018-12-10T03:32:57.136Z,5.61
2018-12-10T03:34:07.122Z,5.72
2018-12-10T03:35:16.823Z,5.69
2018-12-10T03:36:26.519Z,5.67
2018-12-10T03:37:37.228Z,5.72
2018-12-10T03:38:47.254Z,5.79
2018-12-10T03:39:56.693Z,5.65
2018-12-10T03:41:06.680Z,5.69
2018-12-10T03:42:16.629Z,5.7
2018-12-10T03:43:26.587Z,5.72
2018-12-10T03:44:36.279Z,5.72
2018-12-10T03:45:46.005Z,5.73
2018-12-10T03:46:55.953Z,5.7
2018-12-10T03:48:05.646Z,5.74
2018-12-10T03:49:15.612Z,5.73
2018-12-10T03:50:25.550Z,5.74
2018-12-10T03:51:35.225Z,5.72
2018-12-10T03:52:45.151Z,5.77
2018-12-10T03:53:55.099Z,5.73
2018-12-10T03:55:04.538Z,5.73
2018-12-10T03:56:14.242Z,5.72
2018-12-10T03:57:23.950Z,5.72
2018-12-10T03:58:33.898Z,5.74
2018-12-10T03:59:43.832Z,5.7
2018-12-10T04:00:53.515Z,5.72
2018-12-10T04:02:03.466Z,5.7
2018-12-10T04:03:13.391Z,5.73
2018-12-10T04:04:23.332Z,5.73
2018-12-10T04:05:33.268Z,5.76
2018-12-10T04:06:42.939Z,5.73
2018-12-10T04:07:52.675Z,5.76
2018-12-10T04:09:02.622Z,5.73
2018-12-10T04:10:12.445Z,5.74
2018-12-10T04:11:22.406Z,5.74
2018-12-10T04:12:32.464Z,5.76
2018-12-10T04:13:42.400Z,5.72
2018-12-10T04:14:52.345Z,5.76
2018-12-10T04:16:02.294Z,5.76
2018-12-10T04:17:12.230Z,5.79
2018-12-10T04:18:22.174Z,5.73
2018-12-10T04:19:33.452Z,5.79
2018-12-10T04:20:43.397Z,5.74
2018-12-10T04:21:53.351Z,5.72
2018-12-10T04:23:03.393Z,5.77
2018-12-10T04:24:13.080Z,5.8
2018-12-10T04:25:23.015Z,5.73
2018-12-10T04:26:32.949Z,5.81
2018-12-10T04:27:42.660Z,5.73
2018-12-10T04:28:52.651Z,5.79
2018-12-10T04:30:02.341Z,5.73
2018-12-10T04:31:12.276Z,5.65
2018-12-10T04:32:21.979Z,5.72
2018-12-10T04:33:31.715Z,5.77
2018-12-10T04:34:41.692Z,5.74
2018-12-10T04:35:51.643Z,5.72
2018-12-10T04:37:01.346Z,5.74
2018-12-10T04:38:11.316Z,5.67
2018-12-10T04:39:21.246Z,5.74
2018-12-10T04:40:30.940Z,5.79
2018-12-10T04:41:40.155Z,5.72
2018-12-10T04:42:49.855Z,5.62
2018-12-10T04:43:59.548Z,5.76
2018-12-10T04:45:09.493Z,5.72
2018-12-10T04:46:19.172Z,5.8
2018-12-10T04:47:29.112Z,5.69
2018-12-10T04:48:38.805Z,5.8
2018-12-10T04:49:48.482Z,5.83
2018-12-10T04:50:58.186Z,5.72
2018-12-10T04:52:07.884Z,5.73
2018-12-10T04:53:17.727Z,5.74
2018-12-10T04:54:27.653Z,5.69
2018-12-10T04:55:37.349Z,5.83
2018-12-10T04:56:47.292Z,5.77
2018-12-10T04:57:56.977Z,5.73
2018-12-10T04:59:06.664Z,5.74
2018-12-10T05:00:16.591Z,5.74
2018-12-10T05:01:26.030Z,5.7
2018-12-10T05:02:35.718Z,5.72
2018-12-10T05:03:45.725Z,5.72
2018-12-10T05:04:55.668Z,5.69
2018-12-10T05:06:05.368Z,5.62
2018-12-10T05:07:15.299Z,5.77
2018-12-10T05:08:24.991Z,5.65
2018-12-10T05:09:35.070Z,5.69
2018-12-10T05:10:44.772Z,5.7
2018-12-10T05:11:54.467Z,5.74
2018-12-10T05:13:04.411Z,5.62
2018-12-10T05:14:14.368Z,5.73
2018-12-10T05:15:24.305Z,5.72
2018-12-10T05:16:33.727Z,5.73
2018-12-10T05:17:43.674Z,5.74
2018-12-10T05:18:53.109Z,5.72
2018-12-10T05:20:02.563Z,5.72
2018-12-10T05:21:13.545Z,5.74
2018-12-10T05:22:23.302Z,5.77
2018-12-10T05:23:32.744Z,5.77
2018-12-10T05:24:42.677Z,5.83
2018-12-10T05:25:52.737Z,5.76
2018-12-10T05:27:03.751Z,5.73
2018-12-10T05:28:13.793Z,5.74
2018-12-10T05:29:23.738Z,5.77
2018-12-10T05:30:33.696Z,5.7
2018-12-10T05:31:43.381Z,5.7
2018-12-10T05:32:53.075Z,5.7
2018-12-10T05:34:02.523Z,5.72
2018-12-10T05:35:12.462Z,5.76
2018-12-10T05:36:22.163Z,5.76
2018-12-10T05:37:31.858Z,5.76
2018-12-10T05:38:41.545Z,5.72
2018-12-10T05:39:51.481Z,5.69
2018-12-10T05:41:01.572Z,5.7
2018-12-10T05:42:11.268Z,5.76
2018-12-10T05:43:21.209Z,5.74
2018-12-10T05:44:31.145Z,5.73
2018-12-10T05:45:41.065Z,5.7
2018-12-10T05:46:50.993Z,5.7
2018-12-10T05:48:00.932Z,5.7
2018-12-10T05:49:10.631Z,5.74
2018-12-10T05:50:20.559Z,5.79
2018-12-10T05:51:30.501Z,5.69
2018-12-10T05:52:40.453Z,5.67
2018-12-10T05:53:50.146Z,5.76
2018-12-10T05:54:59.601Z,5.69
2018-12-10T05:56:09.551Z,5.69
2018-12-10T05:57:19.490Z,5.67
2018-12-10T05:58:29.437Z,5.64
2018-12-10T05:59:39.429Z,5.7
2018-12-10T06:00:49.115Z,5.62
2018-12-10T06:01:59.055Z,5.62
2018-12-10T06:03:08.743Z,5.65
2018-12-10T06:04:18.679Z,5.67
2018-12-10T06:05:28.365Z,5.65
2018-12-10T06:06:38.078Z,5.72
2018-12-10T06:07:47.769Z,5.77
2018-12-10T06:08:57.461Z,5.59
2018-12-10T06:10:07.409Z,5.7
2018-12-10T06:11:17.346Z,5.62
2018-12-10T06:12:27.308Z,5.67
2018-12-10T06:13:37.120Z,5.62
2018-12-10T06:14:47.059Z,5.7
2018-12-10T06:15:56.751Z,5.64
2018-12-10T06:17:06.444Z,5.74
2018-12-10T06:18:16.388Z,5.74
2018-12-10T06:19:26.336Z,5.72
2018-12-10T06:20:36.278Z,5.64
2018-12-10T06:21:46.211Z,5.7
2018-12-10T06:22:55.899Z,5.64
2018-12-10T06:24:05.607Z,5.65
2018-12-10T06:25:15.288Z,5.61
2018-12-10T06:26:25.237Z,5.55
2018-12-10T06:27:34.934Z,5.62
2018-12-10T06:28:46.226Z,5.59
2018-12-10T06:29:55.673Z,5.52
2018-12-10T06:31:05.602Z,5.54
2018-12-10T06:32:15.282Z,5.56
2018-12-10T06:33:25.298Z,5.51
2018-12-10T06:34:34.990Z,5.51
2018-12-10T06:35:44.663Z,5.47
2018-12-10T06:36:54.350Z,5.43
2018-12-10T06:38:04.298Z,5.46
2018-12-10T06:39:13.734Z,5.38
2018-12-10T06:40:23.688Z,5.4
2018-12-10T06:41:33.630Z,5.31
2018-12-10T06:42:43.379Z,5.34
2018-12-10T06:43:53.079Z,5.31
2018-12-10T06:45:02.534Z,5.36
2018-12-10T06:46:12.260Z,5.31
2018-12-10T06:47:22.212Z,5.34
2018-12-10T06:48:32.182Z,5.22
2018-12-10T06:49:42.174Z,5.29
2018-12-10T06:50:51.885Z,5.26
2018-12-10T06:52:01.868Z,5.25
2018-12-10T06:53:11.816Z,5.23
2018-12-10T06:54:21.500Z,5.2
2018-12-10T06:55:31.202Z,5.23
2018-12-10T06:56:40.945Z,5.22
2018-12-10T06:57:50.894Z,5.2
2018-12-10T06:59:00.833Z,5.13
2018-12-10T07:00:10.769Z,5.16
2018-12-10T07:01:20.464Z,5.2
2018-12-10T07:02:30.387Z,5.18
2018-12-10T07:03:40.337Z,5.02
2018-12-10T07:04:50.344Z,5.15
2018-12-10T07:06:00.306Z,5.15
2018-12-10T07:07:10.267Z,5.16
2018-12-10T07:08:19.969Z,5.18
2018-12-10T07:09:29.653Z,5.16
2018-12-10T07:10:39.591Z,5.1
2018-12-10T07:11:49.290Z,5.15
2018-12-10T07:12:59.230Z,5.13
2018-12-10T07:14:09.238Z,5.13
2018-12-10T07:15:18.933Z,5.12
2018-12-10T07:16:29.002Z,5.13
2018-12-10T07:17:38.987Z,5.04
2018-12-10T07:18:48.430Z,5.16
2018-12-10T07:19:58.444Z,5.18
2018-12-10T07:21:07.901Z,5.15
2018-12-10T07:22:17.688Z,5.08
2018-12-10T07:23:27.635Z,5.07
2018-12-10T07:24:37.309Z,5.02
2018-12-10T07:25:47.249Z,5.02
2018-12-10T07:26:56.944Z,5.13
2018-12-10T07:28:06.884Z,5.05
2018-12-10T07:29:16.840Z,5.07
2018-12-10T07:30:26.791Z,5
2018-12-10T07:31:36.498Z,5.04
2018-12-10T07:32:46.437Z,5.07
2018-12-10T07:33:55.872Z,5.08
2018-12-10T07:35:05.823Z,5.04
2018-12-10T07:36:15.529Z,4.97
2018-12-10T07:37:25.490Z,5.01
2018-12-10T07:38:35.429Z,4.97
2018-12-10T07:39:45.383Z,4.92
2018-12-10T07:40:55.337Z,4.97
2018-12-10T07:42:05.312Z,5
2018-12-10T07:43:14.769Z,5.04
2018-12-10T07:44:24.498Z,5
2018-12-10T07:45:34.681Z,5.02
2018-12-10T07:46:44.657Z,5.01
2018-12-10T07:47:54.368Z,5.05
2018-12-10T07:49:04.071Z,5.1
2018-12-10T07:50:13.772Z,5.01
2018-12-10T07:51:23.519Z,5.15
2018-12-10T07:52:33.227Z,5.19
2018-12-10T07:53:42.992Z,5.18
2018-12-10T07:54:52.678Z,5.13
2018-12-10T07:56:02.388Z,5.2
2018-12-10T07:57:12.325Z,5.19
2018-12-10T07:58:22.051Z,5.15
2018-12-10T07:59:32.208Z,5.2
2018-12-10T08:00:42.223Z,5.23
2018-12-10T08:01:51.936Z,5.19
2018-12-10T08:03:01.877Z,5.15
2018-12-10T08:04:11.605Z,5.25
2018-12-10T08:05:21.569Z,5.22
2018-12-10T08:06:31.506Z,5.23
2018-12-10T08:07:41.232Z,5.23
2018-12-10T08:08:52.764Z,5.16
2018-12-10T08:10:02.805Z,5.23
2018-12-10T08:11:12.524Z,5.25
2018-12-10T08:12:22.464Z,5.18
2018-12-10T08:13:32.420Z,5.16
2018-12-10T08:14:42.383Z,5.2
2018-12-10T08:15:52.080Z,5.19
2018-12-10T08:17:01.740Z,5.23
2018-12-10T08:18:11.693Z,5.2
2018-12-10T08:19:21.731Z,5.29
2018-12-10T08:20:31.425Z,5.28
2018-12-10T08:21:40.887Z,5.23
2018-12-10T08:22:50.829Z,5.28
2018-12-10T08:24:00.514Z,5.22
2018-12-10T08:25:10.464Z,5.18
2018-12-10T08:26:20.162Z,5.26
2018-12-10T08:27:29.872Z,5.25
2018-12-10T08:28:39.839Z,5.23
2018-12-10T08:29:49.569Z,5.2
2018-12-10T08:30:59.283Z,5.19
2018-12-10T08:32:10.939Z,5.22
2018-12-10T08:33:20.893Z,5.22
2018-12-10T08:34:30.614Z,5.19
2018-12-10T08:35:48.984Z,5.19
2018-12-10T08:37:00.522Z,5.23
2018-12-10T08:38:09.973Z,5.22
2018-12-10T08:39:20.040Z,5.19
2018-12-10T08:40:30.017Z,5.23
2018-12-10T08:41:39.725Z,5.22
2018-12-10T08:42:49.700Z,5.15
2018-12-10T08:43:59.658Z,5.31
2018-12-10T08:45:09.317Z,5.31
2018-12-10T08:46:19.275Z,5.26
2018-12-10T08:47:28.719Z,5.25
2018-12-10T08:48:38.678Z,5.28
2018-12-10T08:49:48.682Z,5.13
2018-12-10T08:50:58.375Z,5.19
2018-12-10T08:52:08.263Z,5.13
2018-12-10T08:53:18.230Z,5.15
2018-12-10T08:54:27.955Z,5.23
2018-12-10T08:55:37.910Z,5.22
2018-12-10T08:56:47.612Z,5.23
2018-12-10T08:57:57.296Z,5.19
2018-12-10T08:59:07.231Z,5.28
2018-12-10T09:00:16.918Z,5.31
2018-12-10T09:01:26.611Z,5.31
2018-12-10T09:02:36.558Z,5.29
2018-12-10T09:03:46.502Z,5.34
2018-12-10T09:04:56.198Z,5.28
2018-12-10T09:06:05.626Z,5.34
2018-12-10T09:07:15.575Z,5.31
2018-12-10T09:08:25.281Z,5.38
2018-12-10T09:09:35.292Z,5.37
2018-12-10T09:10:45.255Z,5.37
2018-12-10T09:11:55.219Z,5.47
2018-12-10T09:13:05.182Z,5.44
2018-12-10T09:14:14.880Z,5.36
2018-12-10T09:15:24.811Z,5.29
2018-12-10T09:16:34.259Z,5.44
2018-12-10T09:17:44.200Z,5.46
2018-12-10T09:18:53.891Z,5.36
2018-12-10T09:20:03.867Z,5.36
2018-12-10T09:21:13.810Z,5.34
2018-12-10T09:22:23.746Z,5.34
2018-12-10T09:23:33.460Z,5.36
2018-12-10T09:24:43.413Z,5.37
2018-12-10T09:25:53.125Z,5.36
2018-12-10T09:27:03.054Z,5.37
2018-12-10T09:28:19.363Z,5.41
2018-12-10T09:29:29.048Z,5.41
2018-12-10T09:30:39.168Z,5.49
2018-12-10T09:31:48.841Z,5.58
2018-12-10T09:32:58.522Z,5.55
2018-12-10T09:34:08.181Z,5.41
2018-12-10T09:35:17.850Z,5.49
2018-12-10T09:36:27.769Z,5.58
2018-12-10T09:37:37.716Z,5.56
2018-12-10T09:38:47.648Z,5.58
2018-12-10T09:39:57.354Z,5.59
2018-12-10T09:41:07.345Z,5.62
2018-12-10T09:42:17.023Z,5.72
2018-12-10T09:43:26.978Z,5.76
2018-12-10T09:44:36.670Z,5.79
2018-12-10T09:45:46.378Z,5.73
2018-12-10T09:47:03.878Z,5.73
2018-12-10T09:48:13.583Z,5.74
2018-12-10T09:49:23.299Z,5.64
2018-12-10T09:50:33.100Z,5.64
2018-12-10T09:51:43.096Z,5.67
2018-12-10T09:52:52.789Z,5.72
2018-12-10T09:54:02.755Z,5.61
2018-12-10T09:55:12.709Z,5.69
2018-12-10T09:56:22.652Z,5.72
2018-12-10T09:57:32.621Z,5.72
2018-12-10T09:58:42.348Z,5.56
2018-12-10T09:59:52.318Z,5.59
2018-12-10T10:01:02.012Z,5.61
2018-12-10T10:02:17.136Z,5.56
2018-12-10T10:03:27.093Z,5.51
2018-12-10T10:04:36.806Z,5.51
2018-12-10T10:05:46.763Z,5.47
2018-12-10T10:06:56.748Z,5.44
2018-12-10T10:08:06.458Z,5.56
2018-12-10T10:09:16.427Z,5.59
2018-12-10T10:10:26.123Z,5.58
2018-12-10T10:11:35.831Z,5.59
2018-12-10T10:12:45.814Z,5.55
2018-12-10T10:13:55.788Z,5.55
2018-12-10T10:15:05.289Z,5.67
2018-12-10T10:16:14.739Z,5.72
2018-12-10T10:17:24.796Z,5.69
2018-12-10T10:18:34.731Z,5.65
2018-12-10T10:19:44.660Z,5.58
2018-12-10T10:20:54.605Z,5.58
2018-12-10T10:22:04.685Z,5.54
2018-12-10T10:23:14.394Z,5.61
2018-12-10T10:24:24.330Z,5.74
2018-12-10T10:25:34.247Z,5.62
2018-12-10T10:26:43.821Z,5.59
2018-12-10T10:27:53.750Z,5.72
2018-12-10T10:29:03.440Z,5.64
2018-12-10T10:30:13.128Z,5.55
2018-12-10T10:31:23.066Z,5.55
2018-12-10T10:32:32.770Z,5.62
2018-12-10T10:33:42.471Z,5.64
2018-12-10T10:34:52.434Z,5.59
2018-12-10T10:36:01.870Z,5.67
2018-12-10T10:37:11.554Z,5.59
2018-12-10T10:38:21.262Z,5.55
2018-12-10T10:39:31.232Z,5.61
2018-12-10T10:40:40.943Z,5.62
2018-12-10T10:41:50.758Z,5.72
2018-12-10T10:43:02.670Z,5.69
2018-12-10T10:44:12.649Z,5.69
2018-12-10T10:45:22.367Z,5.69
2018-12-10T10:46:39.808Z,5.69
2018-12-10T10:47:49.764Z,5.76
2018-12-10T10:48:59.454Z,5.72
2018-12-10T10:50:09.666Z,5.9
2018-12-10T10:51:19.358Z,6.01
2018-12-10T10:52:33.135Z,6.05
2018-12-10T10:53:42.990Z,6.06
2018-12-10T10:54:52.859Z,6.02
2018-12-10T10:56:02.805Z,6.09
2018-12-10T10:57:12.748Z,5.95
2018-12-10T10:58:24.899Z,5.94
2018-12-10T10:59:34.871Z,5.98
2018-12-10T11:00:44.570Z,5.95
2018-12-10T11:01:54.537Z,5.95
2018-12-10T11:03:04.529Z,5.9
2018-12-10T11:04:15.544Z,5.92
2018-12-10T11:05:25.498Z,5.84
2018-12-10T11:06:35.446Z,5.84
2018-12-10T11:07:45.489Z,5.84
2018-12-10T11:08:55.185Z,5.77
2018-12-10T11:10:04.897Z,5.77
2018-12-10T11:11:14.855Z,5.7
2018-12-10T11:12:24.811Z,5.67
2018-12-10T11:13:34.753Z,5.76
2018-12-10T11:14:44.691Z,5.73
2018-12-10T11:15:54.649Z,5.79
2018-12-10T11:17:04.586Z,5.72
2018-12-10T11:18:14.525Z,5.77
2018-12-10T11:19:24.465Z,5.72
2018-12-10T11:20:34.426Z,5.65
2018-12-10T11:21:44.104Z,5.62
2018-12-10T11:22:54.065Z,5.7
2018-12-10T11:24:03.758Z,5.74
2018-12-10T11:25:13.444Z,5.65
2018-12-10T11:26:23.135Z,5.69
2018-12-10T11:27:33.094Z,5.67
2018-12-10T11:28:43.251Z,5.62
2018-12-10T11:29:52.934Z,5.73
2018-12-10T11:31:02.625Z,5.73
2018-12-10T11:32:12.567Z,5.76
2018-12-10T11:33:22.248Z,5.67
2018-12-10T11:34:31.977Z,5.79
2018-12-10T11:35:41.679Z,5.76
2018-12-10T11:36:51.121Z,5.77
2018-12-10T11:38:01.085Z,5.74
2018-12-10T11:39:10.797Z,5.7
2018-12-10T11:40:20.733Z,5.8
2018-12-10T11:41:30.412Z,5.69
2018-12-10T11:42:40.344Z,5.62
2018-12-10T11:43:50.359Z,5.65
2018-12-10T11:45:00.306Z,5.74
2018-12-10T11:46:10.248Z,5.69
2018-12-10T11:47:20.202Z,5.69
2018-12-10T11:48:29.902Z,5.65
2018-12-10T11:49:39.596Z,5.7
2018-12-10T11:50:49.599Z,5.72
2018-12-10T11:51:59.300Z,5.69
2018-12-10T11:53:09.236Z,5.69
2018-12-10T11:54:18.925Z,5.69
2018-12-10T11:55:28.900Z,5.72
2018-12-10T11:56:38.846Z,5.67
2018-12-10T11:57:48.769Z,5.73
2018-12-10T11:58:58.710Z,5.67
2018-12-10T12:00:08.669Z,5.7
2018-12-10T12:01:18.409Z,5.64
2018-12-10T12:02:34.573Z,5.73
2018-12-10T12:03:44.277Z,5.73
2018-12-10T12:04:54.754Z,5.64
2018-12-10T12:06:06.241Z,5.72
2018-12-10T12:07:16.054Z,5.67
2018-12-10T12:08:25.504Z,5.67
2018-12-10T12:09:35.207Z,5.72
2018-12-10T12:10:45.184Z,5.65
2018-12-10T12:11:54.875Z,5.77
2018-12-10T12:13:04.332Z,5.74
2018-12-10T12:14:14.036Z,5.76
2018-12-10T12:15:23.857Z,5.62
2018-12-10T12:16:33.839Z,5.7
2018-12-10T12:17:43.788Z,5.72
2018-12-10T12:18:53.479Z,5.73
2018-12-10T12:20:05.319Z,5.64
2018-12-10T12:21:15.042Z,5.67
2018-12-10T12:22:24.981Z,5.79
2018-12-10T12:23:34.934Z,5.65
2018-12-10T12:24:44.929Z,5.7
2018-12-10T12:25:54.919Z,5.69
2018-12-10T12:27:04.880Z,5.62
2018-12-10T12:28:14.576Z,5.69
2018-12-10T12:29:24.507Z,5.7
2018-12-10T12:30:34.210Z,5.73
2018-12-10T12:31:44.156Z,5.67
2018-12-10T12:32:53.862Z,5.74
2018-12-10T12:34:03.792Z,5.77
2018-12-10T12:35:13.757Z,5.62
2018-12-10T12:36:23.721Z,5.67
2018-12-10T12:37:33.670Z,5.65
2018-12-10T12:38:43.613Z,5.69
2018-12-10T12:39:53.302Z,5.74
2018-12-10T12:41:03.278Z,5.69
2018-12-10T12:42:12.815Z,5.72
2018-12-10T12:43:22.521Z,5.7
2018-12-10T12:44:32.478Z,5.74
2018-12-10T12:45:42.159Z,5.7
2018-12-10T12:46:51.860Z,5.64
2018-12-10T12:48:02.007Z,5.65
2018-12-10T12:49:11.712Z,5.79
2018-12-10T12:50:21.455Z,5.7
2018-12-10T12:51:31.398Z,5.7
2018-12-10T12:52:41.355Z,5.67
2018-12-10T12:53:51.042Z,5.62
2018-12-10T12:55:00.747Z,5.56
2018-12-10T12:56:10.738Z,5.55
2018-12-10T12:57:20.453Z,5.56
2018-12-10T12:58:30.400Z,5.56
2018-12-10T12:59:40.088Z,5.54
2018-12-10T13:00:50.039Z,5.58
2018-12-10T13:02:05.026Z,5.43
2018-12-10T13:03:14.718Z,5.29
2018-12-10T13:04:24.658Z,5.08
2018-12-10T13:05:34.616Z,5.02
2018-12-10T13:06:43.800Z,5
2018-12-10T13:07:53.499Z,4.89
2018-12-10T13:09:02.950Z,4.79
2018-12-10T13:10:12.632Z,4.79
2018-12-10T13:11:22.588Z,4.68
2018-12-10T13:12:32.542Z,4.78
2018-12-10T13:13:42.489Z,4.94
2018-12-10T13:14:52.188Z,4.92
2018-12-10T13:16:02.388Z,5
2018-12-10T13:17:12.086Z,5
2018-12-10T13:18:21.772Z,5.15
2018-12-10T13:19:32.228Z,5.16
2018-12-10T13:20:42.188Z,5.22
2018-12-10T13:21:52.125Z,5.25
2018-12-10T13:23:02.314Z,5.23
2018-12-10T13:24:12.239Z,5.29
2018-12-10T13:25:22.185Z,5.31
2018-12-10T13:26:31.905Z,5.33
2018-12-10T13:27:41.870Z,5.31
2018-12-10T13:28:51.884Z,5.36
2018-12-10T13:30:01.999Z,5.44
2018-12-10T13:31:11.959Z,5.29
2018-12-10T13:32:22.133Z,5.44
2018-12-10T13:33:32.083Z,5.49
2018-12-10T13:34:41.777Z,5.44
2018-12-10T13:35:51.729Z,5.43
2018-12-10T13:37:01.519Z,5.46
2018-12-10T13:38:15.209Z,5.46
2018-12-10T13:39:25.159Z,5.46
2018-12-10T13:40:34.891Z,5.46
2018-12-10T13:41:44.826Z,5.36
2018-12-10T13:42:54.763Z,5.34
2018-12-10T13:44:04.719Z,5.36
2018-12-10T13:45:14.445Z,5.38
2018-12-10T13:46:24.410Z,5.36
2018-12-10T13:47:34.131Z,5.36
2018-12-10T13:48:44.058Z,5.33
2018-12-10T13:49:53.769Z,5.33
2018-12-10T13:51:03.468Z,5.33
2018-12-10T13:52:13.839Z,5.34
2018-12-10T13:53:23.539Z,5.38
2018-12-10T13:54:33.536Z,5.29
2018-12-10T13:55:43.488Z,5.28
2018-12-10T13:56:53.433Z,5.34
2018-12-10T13:58:03.132Z,5.44
2018-12-10T13:59:12.822Z,5.38
2018-12-10T14:00:22.264Z,5.38
2018-12-10T14:01:31.969Z,5.43
2018-12-10T14:02:41.921Z,5.43
2018-12-10T14:03:51.874Z,5.38
2018-12-10T14:05:01.830Z,5.46
2018-12-10T14:06:11.776Z,5.47
2018-12-10T14:07:21.547Z,5.43
2018-12-10T14:08:31.223Z,5.44
2018-12-10T14:09:40.671Z,5.44
2018-12-10T14:10:50.612Z,5.44
2018-12-10T14:12:00.982Z,5.4
2018-12-10T14:13:10.716Z,5.47
2018-12-10T14:14:20.656Z,5.41
2018-12-10T14:15:30.606Z,5.44
2018-12-10T14:16:40.305Z,5.51
2018-12-10T14:17:50.313Z,5.49
2018-12-10T14:19:00.013Z,5.55
2018-12-10T14:20:09.708Z,5.43
2018-12-10T14:21:19.652Z,5.49
2018-12-10T14:22:29.609Z,5.55
2018-12-10T14:23:39.305Z,5.56
2018-12-10T14:24:49.418Z,5.56
2018-12-10T14:25:59.361Z,5.49
2018-12-10T14:27:09.048Z,5.59
2018-12-10T14:28:19.036Z,5.62
2018-12-10T14:29:29.010Z,5.54
2018-12-10T14:30:38.684Z,5.54
2018-12-10T14:31:48.377Z,5.49
2018-12-10T14:32:58.341Z,5.43
2018-12-10T14:34:08.036Z,5.44
2018-12-10T14:35:18.063Z,5.51
2018-12-10T14:36:28.021Z,5.47
2018-12-10T14:37:37.966Z,5.43
2018-12-10T14:38:47.916Z,5.47
2018-12-10T14:39:57.868Z,5.43
2018-12-10T14:41:07.591Z,5.46
2018-12-10T14:42:17.287Z,5.47
2018-12-10T14:43:27.218Z,5.44
2018-12-10T14:44:36.929Z,5.46
2018-12-10T14:45:46.621Z,5.41
2018-12-10T14:46:56.558Z,5.38
2018-12-10T14:48:06.505Z,5.41
2018-12-10T14:49:16.442Z,5.33
2018-12-10T14:50:26.414Z,5.34
2018-12-10T14:51:36.363Z,5.36
2018-12-10T14:52:46.314Z,5.38
2018-12-10T14:53:56.262Z,5.41
2018-12-10T14:55:05.964Z,5.41
2018-12-10T14:56:15.909Z,5.29
2018-12-10T14:57:25.107Z,5.4
2018-12-10T14:58:35.026Z,5.29
2018-12-10T14:59:44.712Z,5.31
2018-12-10T15:00:54.414Z,5.26
2018-12-10T15:02:04.098Z,5.25
2018-12-10T15:03:13.788Z,5.25
2018-12-10T15:04:23.488Z,5.22
2018-12-10T15:05:33.430Z,5.23
2018-12-10T15:06:43.119Z,5.19
2018-12-10T15:07:53.094Z,5.28
2018-12-10T15:09:03.044Z,5.26
2018-12-10T15:10:12.759Z,5.25
2018-12-10T15:11:28.176Z,5.25
2018-12-10T15:12:37.881Z,5.22
2018-12-10T15:13:47.565Z,5.26
2018-12-10T15:14:57.505Z,5.2
2018-12-10T15:16:07.459Z,5.12
2018-12-10T15:17:17.162Z,5.19
2018-12-10T15:18:27.104Z,5.13
2018-12-10T15:19:36.798Z,5.19
2018-12-10T15:20:46.229Z,5.12
2018-12-10T15:21:55.950Z,5.1
2018-12-10T15:23:05.950Z,5.15
2018-12-10T15:24:15.888Z,5.13
2018-12-10T15:25:25.828Z,5.16
2018-12-10T15:26:35.755Z,5.12
2018-12-10T15:27:45.709Z,5.16
2018-12-10T15:28:55.418Z,5.16
2018-12-10T15:30:05.120Z,5.2
2018-12-10T15:31:14.826Z,5.23
2018-12-10T15:32:24.819Z,5.2
2018-12-10T15:33:34.767Z,5.22
2018-12-10T15:34:44.464Z,5.23